sensor_id;sensor_type;location;lat;lon;timestamp;temperature;humidity
66128;DHT22;52925;52.436;-1.952;2023-09-08T00:00:16;22.40;91.10
66128;DHT22;52925;52.436;-1.952;2023-09-08T00:01:37;22.40;91.10
66128;DHT22;52925;52.436;-1.952;2023-09-08T00:02:57;22.30;91.10
66128;DHT22;52925;52.436;-1.952;2023-09-08T00:04:19;22.30;91.10
66128;DHT22;52925;52.436;-1.952;2023-09-08T00:05:40;22.30;91.00
66128;DHT22;52925;52.436;-1.952;2023-09-08T00:07:02;22.30;91.10
66128;DHT22;52925;52.436;-1.952;2023-09-08T00:08:23;22.40;91.10
66128;DHT22;52925;52.436;-1.952;2023-09-08T00:09:44;22.30;91.10
66128;DHT22;52925;52.436;-1.952;2023-09-08T00:11:04;22.30;91.10
66128;DHT22;52925;52.436;-1.952;2023-09-08T00:12:26;22.30;91.00
66128;DHT22;52925;52.436;-1.952;2023-09-08T00:13:46;22.30;91.00
66128;DHT22;52925;52.436;-1.952;2023-09-08T00:15:10;22.30;91.00
66128;DHT22;52925;52.436;-1.952;2023-09-08T00:16:31;22.30;91.40
66128;DHT22;52925;52.436;-1.952;2023-09-08T00:17:52;22.30;91.00
66128;DHT22;52925;52.436;-1.952;2023-09-08T00:19:12;22.30;91.00
66128;DHT22;52925;52.436;-1.952;2023-09-08T00:20:32;22.30;91.10
66128;DHT22;52925;52.436;-1.952;2023-09-08T00:21:52;22.30;91.00
66128;DHT22;52925;52.436;-1.952;2023-09-08T00:23:14;22.30;91.00
66128;DHT22;52925;52.436;-1.952;2023-09-08T00:24:34;22.30;91.00
66128;DHT22;52925;52.436;-1.952;2023-09-08T00:25:55;22.30;91.00
66128;DHT22;52925;52.436;-1.952;2023-09-08T00:27:15;22.20;91.00
66128;DHT22;52925;52.436;-1.952;2023-09-08T00:28:36;22.20;91.00
66128;DHT22;52925;52.436;-1.952;2023-09-08T00:29:56;22.20;91.00
66128;DHT22;52925;52.436;-1.952;2023-09-08T00:31:17;22.20;91.00
66128;DHT22;52925;52.436;-1.952;2023-09-08T00:32:38;22.20;91.00
66128;DHT22;52925;52.436;-1.952;2023-09-08T00:33:58;22.20;91.10
66128;DHT22;52925;52.436;-1.952;2023-09-08T00:35:18;22.20;91.10
66128;DHT22;52925;52.436;-1.952;2023-09-08T00:36:39;22.20;91.00
66128;DHT22;52925;52.436;-1.952;2023-09-08T00:37:59;22.20;91.10
66128;DHT22;52925;52.436;-1.952;2023-09-08T00:39:21;22.20;91.10
66128;DHT22;52925;52.436;-1.952;2023-09-08T00:40:41;22.20;91.10
66128;DHT22;52925;52.436;-1.952;2023-09-08T00:42:02;22.20;91.10
66128;DHT22;52925;52.436;-1.952;2023-09-08T00:43:22;22.20;91.10
66128;DHT22;52925;52.436;-1.952;2023-09-08T00:44:43;22.20;91.10
66128;DHT22;52925;52.436;-1.952;2023-09-08T00:46:03;22.20;91.10
66128;DHT22;52925;52.436;-1.952;2023-09-08T00:47:25;22.10;91.10
66128;DHT22;52925;52.436;-1.952;2023-09-08T00:48:45;22.10;91.00
66128;DHT22;52925;52.436;-1.952;2023-09-08T00:50:07;22.10;91.10
66128;DHT22;52925;52.436;-1.952;2023-09-08T00:51:27;22.10;91.10
66128;DHT22;52925;52.436;-1.952;2023-09-08T00:52:49;22.10;91.10
66128;DHT22;52925;52.436;-1.952;2023-09-08T00:54:09;22.10;91.10
66128;DHT22;52925;52.436;-1.952;2023-09-08T00:55:31;22.10;91.10
66128;DHT22;52925;52.436;-1.952;2023-09-08T00:56:55;22.10;91.10
66128;DHT22;52925;52.436;-1.952;2023-09-08T00:58:16;22.10;91.10
66128;DHT22;52925;52.436;-1.952;2023-09-08T00:59:37;22.10;91.10
66128;DHT22;52925;52.436;-1.952;2023-09-08T01:00:58;22.10;91.10
66128;DHT22;52925;52.436;-1.952;2023-09-08T01:02:18;22.10;91.10
66128;DHT22;52925;52.436;-1.952;2023-09-08T01:03:40;22.00;91.10
66128;DHT22;52925;52.436;-1.952;2023-09-08T01:05:00;22.00;91.10
66128;DHT22;52925;52.436;-1.952;2023-09-08T01:06:21;22.00;91.10
66128;DHT22;52925;52.436;-1.952;2023-09-08T01:07:42;22.10;91.10
66128;DHT22;52925;52.436;-1.952;2023-09-08T01:09:03;22.10;91.10
66128;DHT22;52925;52.436;-1.952;2023-09-08T01:10:24;22.00;91.10
66128;DHT22;52925;52.436;-1.952;2023-09-08T01:11:47;22.00;91.10
66128;DHT22;52925;52.436;-1.952;2023-09-08T01:13:09;22.00;91.10
66128;DHT22;52925;52.436;-1.952;2023-09-08T01:14:30;22.10;91.10
66128;DHT22;52925;52.436;-1.952;2023-09-08T01:15:50;22.00;91.10
66128;DHT22;52925;52.436;-1.952;2023-09-08T01:17:11;22.00;91.10
66128;DHT22;52925;52.436;-1.952;2023-09-08T01:18:31;22.00;91.10
66128;DHT22;52925;52.436;-1.952;2023-09-08T01:19:55;22.00;91.10
66128;DHT22;52925;52.436;-1.952;2023-09-08T01:21:51;22.00;91.10
66128;DHT22;52925;52.436;-1.952;2023-09-08T01:23:18;22.00;91.00
66128;DHT22;52925;52.436;-1.952;2023-09-08T01:26:41;22.00;91.00
66128;DHT22;52925;52.436;-1.952;2023-09-08T01:28:03;22.00;91.10
66128;DHT22;52925;52.436;-1.952;2023-09-08T01:29:26;22.00;91.00
66128;DHT22;52925;52.436;-1.952;2023-09-08T01:30:48;22.00;91.00
66128;DHT22;52925;52.436;-1.952;2023-09-08T01:32:08;22.00;91.00
66128;DHT22;52925;52.436;-1.952;2023-09-08T01:33:30;22.00;91.00
66128;DHT22;52925;52.436;-1.952;2023-09-08T01:34:50;22.00;91.10
66128;DHT22;52925;52.436;-1.952;2023-09-08T01:36:13;22.00;91.00
66128;DHT22;52925;52.436;-1.952;2023-09-08T01:37:34;21.90;91.00
66128;DHT22;52925;52.436;-1.952;2023-09-08T01:38:54;21.90;91.00
66128;DHT22;52925;52.436;-1.952;2023-09-08T01:40:15;22.00;91.00
66128;DHT22;52925;52.436;-1.952;2023-09-08T01:41:35;21.90;91.00
66128;DHT22;52925;52.436;-1.952;2023-09-08T01:42:57;21.90;91.00
66128;DHT22;52925;52.436;-1.952;2023-09-08T01:44:18;21.90;91.00
66128;DHT22;52925;52.436;-1.952;2023-09-08T01:45:38;21.90;91.00
66128;DHT22;52925;52.436;-1.952;2023-09-08T01:46:59;21.90;91.00
66128;DHT22;52925;52.436;-1.952;2023-09-08T01:48:19;21.90;91.00
66128;DHT22;52925;52.436;-1.952;2023-09-08T01:49:40;21.90;91.00
66128;DHT22;52925;52.436;-1.952;2023-09-08T01:51:00;22.00;91.00
66128;DHT22;52925;52.436;-1.952;2023-09-08T01:52:20;21.90;91.00
66128;DHT22;52925;52.436;-1.952;2023-09-08T01:53:40;21.90;91.00
66128;DHT22;52925;52.436;-1.952;2023-09-08T01:55:04;21.90;91.00
66128;DHT22;52925;52.436;-1.952;2023-09-08T01:56:24;21.80;91.00
66128;DHT22;52925;52.436;-1.952;2023-09-08T01:57:45;21.90;91.00
66128;DHT22;52925;52.436;-1.952;2023-09-08T01:59:07;21.90;91.00
66128;DHT22;52925;52.436;-1.952;2023-09-08T02:00:28;21.90;91.00
66128;DHT22;52925;52.436;-1.952;2023-09-08T02:01:48;21.90;91.00
66128;DHT22;52925;52.436;-1.952;2023-09-08T02:03:09;21.80;91.00
66128;DHT22;52925;52.436;-1.952;2023-09-08T02:04:30;21.90;91.00
66128;DHT22;52925;52.436;-1.952;2023-09-08T02:05:50;21.80;91.00
66128;DHT22;52925;52.436;-1.952;2023-09-08T02:07:11;21.80;91.00
66128;DHT22;52925;52.436;-1.952;2023-09-08T02:08:31;21.80;91.00
66128;DHT22;52925;52.436;-1.952;2023-09-08T02:09:52;21.80;91.00
66128;DHT22;52925;52.436;-1.952;2023-09-08T02:11:13;21.80;91.00
66128;DHT22;52925;52.436;-1.952;2023-09-08T02:12:33;21.80;91.00
66128;DHT22;52925;52.436;-1.952;2023-09-08T02:13:54;21.80;91.00
66128;DHT22;52925;52.436;-1.952;2023-09-08T02:15:16;21.80;91.00
66128;DHT22;52925;52.436;-1.952;2023-09-08T02:16:36;21.80;91.00
66128;DHT22;52925;52.436;-1.952;2023-09-08T02:17:57;21.80;91.00
66128;DHT22;52925;52.436;-1.952;2023-09-08T02:19:16;21.80;91.00
66128;DHT22;52925;52.436;-1.952;2023-09-08T02:20:37;21.80;91.00
66128;DHT22;52925;52.436;-1.952;2023-09-08T02:21:57;21.80;91.00
66128;DHT22;52925;52.436;-1.952;2023-09-08T02:23:18;21.80;91.00
66128;DHT22;52925;52.436;-1.952;2023-09-08T02:24:38;21.80;91.00
66128;DHT22;52925;52.436;-1.952;2023-09-08T02:25:59;21.80;91.00
66128;DHT22;52925;52.436;-1.952;2023-09-08T02:27:19;21.80;91.00
66128;DHT22;52925;52.436;-1.952;2023-09-08T02:28:42;21.70;91.00
66128;DHT22;52925;52.436;-1.952;2023-09-08T02:30:03;21.70;91.00
66128;DHT22;52925;52.436;-1.952;2023-09-08T02:31:26;21.70;91.00
66128;DHT22;52925;52.436;-1.952;2023-09-08T02:32:46;21.70;91.00
66128;DHT22;52925;52.436;-1.952;2023-09-08T02:34:07;21.70;91.00
66128;DHT22;52925;52.436;-1.952;2023-09-08T02:35:27;21.80;91.00
66128;DHT22;52925;52.436;-1.952;2023-09-08T02:36:50;21.70;91.00
66128;DHT22;52925;52.436;-1.952;2023-09-08T02:38:14;21.70;91.00
66128;DHT22;52925;52.436;-1.952;2023-09-08T02:39:35;21.70;91.00
66128;DHT22;52925;52.436;-1.952;2023-09-08T02:40:55;21.70;91.00
66128;DHT22;52925;52.436;-1.952;2023-09-08T02:42:16;21.70;91.00
66128;DHT22;52925;52.436;-1.952;2023-09-08T02:43:36;21.70;91.00
66128;DHT22;52925;52.436;-1.952;2023-09-08T02:44:57;21.70;91.00
66128;DHT22;52925;52.436;-1.952;2023-09-08T02:46:17;21.70;90.90
66128;DHT22;52925;52.436;-1.952;2023-09-08T02:47:39;21.70;90.90
66128;DHT22;52925;52.436;-1.952;2023-09-08T02:48:59;21.70;90.90
66128;DHT22;52925;52.436;-1.952;2023-09-08T02:50:21;21.70;90.90
66128;DHT22;52925;52.436;-1.952;2023-09-08T02:51:41;21.70;91.00
66128;DHT22;52925;52.436;-1.952;2023-09-08T02:53:02;21.70;90.90
66128;DHT22;52925;52.436;-1.952;2023-09-08T02:54:21;21.70;90.90
66128;DHT22;52925;52.436;-1.952;2023-09-08T02:55:42;21.60;90.90
66128;DHT22;52925;52.436;-1.952;2023-09-08T02:57:02;21.70;91.00
66128;DHT22;52925;52.436;-1.952;2023-09-08T02:58:24;21.70;90.90
66128;DHT22;52925;52.436;-1.952;2023-09-08T02:59:49;21.60;90.90
66128;DHT22;52925;52.436;-1.952;2023-09-08T03:01:11;21.60;91.00
66128;DHT22;52925;52.436;-1.952;2023-09-08T03:02:32;21.60;91.30
66128;DHT22;52925;52.436;-1.952;2023-09-08T03:03:55;21.60;90.90
66128;DHT22;52925;52.436;-1.952;2023-09-08T03:05:15;21.70;90.90
66128;DHT22;52925;52.436;-1.952;2023-09-08T03:06:36;21.60;90.90
66128;DHT22;52925;52.436;-1.952;2023-09-08T03:07:56;21.60;91.00
66128;DHT22;52925;52.436;-1.952;2023-09-08T03:09:16;21.60;91.00
66128;DHT22;52925;52.436;-1.952;2023-09-08T03:10:41;21.60;91.00
66128;DHT22;52925;52.436;-1.952;2023-09-08T03:12:02;21.60;91.00
66128;DHT22;52925;52.436;-1.952;2023-09-08T03:13:22;21.60;91.00
66128;DHT22;52925;52.436;-1.952;2023-09-08T03:14:45;21.60;91.00
66128;DHT22;52925;52.436;-1.952;2023-09-08T03:16:05;21.50;91.00
66128;DHT22;52925;52.436;-1.952;2023-09-08T03:17:27;21.60;91.00
66128;DHT22;52925;52.436;-1.952;2023-09-08T03:18:47;21.60;90.90
66128;DHT22;52925;52.436;-1.952;2023-09-08T03:20:11;21.50;90.90
66128;DHT22;52925;52.436;-1.952;2023-09-08T03:21:32;21.50;91.00
66128;DHT22;52925;52.436;-1.952;2023-09-08T03:22:53;21.50;91.00
66128;DHT22;52925;52.436;-1.952;2023-09-08T03:24:13;21.50;91.00
66128;DHT22;52925;52.436;-1.952;2023-09-08T03:25:34;21.50;91.00
66128;DHT22;52925;52.436;-1.952;2023-09-08T03:26:54;21.50;91.00
66128;DHT22;52925;52.436;-1.952;2023-09-08T03:28:16;21.50;91.00
66128;DHT22;52925;52.436;-1.952;2023-09-08T03:29:36;21.50;91.00
66128;DHT22;52925;52.436;-1.952;2023-09-08T03:30:56;21.50;91.00
66128;DHT22;52925;52.436;-1.952;2023-09-08T03:32:16;21.50;91.00
66128;DHT22;52925;52.436;-1.952;2023-09-08T03:33:37;21.40;91.00
66128;DHT22;52925;52.436;-1.952;2023-09-08T03:34:59;21.50;91.00
66128;DHT22;52925;52.436;-1.952;2023-09-08T03:36:22;21.50;91.00
66128;DHT22;52925;52.436;-1.952;2023-09-08T03:37:43;21.40;91.00
66128;DHT22;52925;52.436;-1.952;2023-09-08T03:39:04;21.40;91.00
66128;DHT22;52925;52.436;-1.952;2023-09-08T03:40:25;21.40;91.00
66128;DHT22;52925;52.436;-1.952;2023-09-08T03:41:45;21.40;91.00
66128;DHT22;52925;52.436;-1.952;2023-09-08T03:43:06;21.40;91.00
66128;DHT22;52925;52.436;-1.952;2023-09-08T03:44:26;21.40;91.00
66128;DHT22;52925;52.436;-1.952;2023-09-08T03:45:47;21.40;91.00
66128;DHT22;52925;52.436;-1.952;2023-09-08T03:47:07;21.40;91.10
66128;DHT22;52925;52.436;-1.952;2023-09-08T03:48:29;21.40;91.10
66128;DHT22;52925;52.436;-1.952;2023-09-08T03:49:49;21.40;91.10
66128;DHT22;52925;52.436;-1.952;2023-09-08T03:51:10;21.40;91.10
66128;DHT22;52925;52.436;-1.952;2023-09-08T03:52:32;21.40;91.10
66128;DHT22;52925;52.436;-1.952;2023-09-08T03:53:53;21.40;91.00
66128;DHT22;52925;52.436;-1.952;2023-09-08T03:55:13;21.40;91.00
66128;DHT22;52925;52.436;-1.952;2023-09-08T03:56:34;21.40;91.00
66128;DHT22;52925;52.436;-1.952;2023-09-08T03:57:54;21.30;91.00
66128;DHT22;52925;52.436;-1.952;2023-09-08T03:59:16;21.30;91.10
66128;DHT22;52925;52.436;-1.952;2023-09-08T04:00:36;21.30;91.10
66128;DHT22;52925;52.436;-1.952;2023-09-08T04:01:57;21.30;91.10
66128;DHT22;52925;52.436;-1.952;2023-09-08T04:03:16;21.30;91.10
66128;DHT22;52925;52.436;-1.952;2023-09-08T04:04:38;21.30;91.10
66128;DHT22;52925;52.436;-1.952;2023-09-08T04:05:57;21.30;91.10
66128;DHT22;52925;52.436;-1.952;2023-09-08T04:07:19;21.30;91.10
66128;DHT22;52925;52.436;-1.952;2023-09-08T04:08:40;21.30;91.20
66128;DHT22;52925;52.436;-1.952;2023-09-08T04:10:01;21.20;91.20
66128;DHT22;52925;52.436;-1.952;2023-09-08T04:11:21;21.30;91.50
66128;DHT22;52925;52.436;-1.952;2023-09-08T04:12:42;21.20;91.10
66128;DHT22;52925;52.436;-1.952;2023-09-08T04:14:03;21.20;91.20
66128;DHT22;52925;52.436;-1.952;2023-09-08T04:15:23;21.20;91.10
66128;DHT22;52925;52.436;-1.952;2023-09-08T04:16:44;21.20;91.20
66128;DHT22;52925;52.436;-1.952;2023-09-08T04:18:04;21.20;91.20
66128;DHT22;52925;52.436;-1.952;2023-09-08T04:19:26;21.20;91.20
66128;DHT22;52925;52.436;-1.952;2023-09-08T04:20:46;21.20;91.20
66128;DHT22;52925;52.436;-1.952;2023-09-08T04:22:07;21.20;91.10
66128;DHT22;52925;52.436;-1.952;2023-09-08T04:23:27;21.20;91.20
66128;DHT22;52925;52.436;-1.952;2023-09-08T04:24:49;21.20;91.20
66128;DHT22;52925;52.436;-1.952;2023-09-08T04:26:09;21.20;91.20
66128;DHT22;52925;52.436;-1.952;2023-09-08T04:27:30;21.20;91.20
66128;DHT22;52925;52.436;-1.952;2023-09-08T04:28:50;21.20;91.20
66128;DHT22;52925;52.436;-1.952;2023-09-08T04:30:13;21.20;91.10
66128;DHT22;52925;52.436;-1.952;2023-09-08T04:31:33;21.10;91.10
66128;DHT22;52925;52.436;-1.952;2023-09-08T04:32:54;21.20;91.20
66128;DHT22;52925;52.436;-1.952;2023-09-08T04:34:14;21.20;91.20
66128;DHT22;52925;52.436;-1.952;2023-09-08T04:35:35;21.10;91.20
66128;DHT22;52925;52.436;-1.952;2023-09-08T04:36:55;21.10;91.50
66128;DHT22;52925;52.436;-1.952;2023-09-08T04:38:16;21.10;91.40
66128;DHT22;52925;52.436;-1.952;2023-09-08T04:39:36;21.10;91.30
66128;DHT22;52925;52.436;-1.952;2023-09-08T04:40:59;21.10;91.30
66128;DHT22;52925;52.436;-1.952;2023-09-08T04:42:19;21.10;91.20
66128;DHT22;52925;52.436;-1.952;2023-09-08T04:43:40;21.10;91.30
66128;DHT22;52925;52.436;-1.952;2023-09-08T04:45:00;21.10;91.20
66128;DHT22;52925;52.436;-1.952;2023-09-08T04:46:21;21.10;91.20
66128;DHT22;52925;52.436;-1.952;2023-09-08T04:47:41;21.10;91.30
66128;DHT22;52925;52.436;-1.952;2023-09-08T04:49:02;21.10;91.30
66128;DHT22;52925;52.436;-1.952;2023-09-08T04:50:22;21.10;91.30
66128;DHT22;52925;52.436;-1.952;2023-09-08T04:51:44;21.00;91.30
66128;DHT22;52925;52.436;-1.952;2023-09-08T04:53:04;21.10;91.40
66128;DHT22;52925;52.436;-1.952;2023-09-08T04:54:25;21.00;91.30
66128;DHT22;52925;52.436;-1.952;2023-09-08T04:55:48;21.00;91.30
66128;DHT22;52925;52.436;-1.952;2023-09-08T04:57:11;21.00;91.30
66128;DHT22;52925;52.436;-1.952;2023-09-08T04:58:30;21.00;91.30
66128;DHT22;52925;52.436;-1.952;2023-09-08T04:59:51;21.00;91.20
66128;DHT22;52925;52.436;-1.952;2023-09-08T05:01:11;21.00;91.20
66128;DHT22;52925;52.436;-1.952;2023-09-08T05:02:32;21.00;91.20
66128;DHT22;52925;52.436;-1.952;2023-09-08T05:03:52;21.00;91.20
66128;DHT22;52925;52.436;-1.952;2023-09-08T05:05:13;21.00;91.60
66128;DHT22;52925;52.436;-1.952;2023-09-08T05:06:33;21.00;91.30
66128;DHT22;52925;52.436;-1.952;2023-09-08T05:07:54;21.00;91.30
66128;DHT22;52925;52.436;-1.952;2023-09-08T05:09:16;21.00;91.30
66128;DHT22;52925;52.436;-1.952;2023-09-08T05:10:36;21.00;91.40
66128;DHT22;52925;52.436;-1.952;2023-09-08T05:11:56;21.10;91.40
66128;DHT22;52925;52.436;-1.952;2023-09-08T05:13:20;21.20;91.30
66128;DHT22;52925;52.436;-1.952;2023-09-08T05:14:46;21.20;91.10
66128;DHT22;52925;52.436;-1.952;2023-09-08T05:16:06;21.30;91.00
66128;DHT22;52925;52.436;-1.952;2023-09-08T05:17:33;21.30;91.00
66128;DHT22;52925;52.436;-1.952;2023-09-08T05:18:54;21.30;91.00
66128;DHT22;52925;52.436;-1.952;2023-09-08T05:20:15;21.30;91.00
66128;DHT22;52925;52.436;-1.952;2023-09-08T05:21:36;21.30;90.90
66128;DHT22;52925;52.436;-1.952;2023-09-08T05:22:57;21.30;90.90
66128;DHT22;52925;52.436;-1.952;2023-09-08T05:24:17;21.30;91.00
66128;DHT22;52925;52.436;-1.952;2023-09-08T05:25:41;21.30;91.00
66128;DHT22;52925;52.436;-1.952;2023-09-08T05:27:01;21.30;91.10
66128;DHT22;52925;52.436;-1.952;2023-09-08T05:28:23;21.30;91.00
66128;DHT22;52925;52.436;-1.952;2023-09-08T05:29:43;21.30;91.00
66128;DHT22;52925;52.436;-1.952;2023-09-08T05:31:04;21.30;91.00
66128;DHT22;52925;52.436;-1.952;2023-09-08T05:32:24;21.30;91.00
66128;DHT22;52925;52.436;-1.952;2023-09-08T05:33:45;21.30;91.00
66128;DHT22;52925;52.436;-1.952;2023-09-08T05:35:06;21.30;91.00
66128;DHT22;52925;52.436;-1.952;2023-09-08T05:36:27;21.30;91.00
66128;DHT22;52925;52.436;-1.952;2023-09-08T05:37:49;21.30;91.00
66128;DHT22;52925;52.436;-1.952;2023-09-08T05:39:10;21.30;90.90
66128;DHT22;52925;52.436;-1.952;2023-09-08T05:40:30;21.30;91.00
66128;DHT22;52925;52.436;-1.952;2023-09-08T05:41:51;21.30;91.00
66128;DHT22;52925;52.436;-1.952;2023-09-08T05:43:11;21.30;91.00
66128;DHT22;52925;52.436;-1.952;2023-09-08T05:44:34;21.30;91.10
66128;DHT22;52925;52.436;-1.952;2023-09-08T05:45:54;21.30;91.00
66128;DHT22;52925;52.436;-1.952;2023-09-08T05:47:15;21.30;91.10
66128;DHT22;52925;52.436;-1.952;2023-09-08T05:48:35;21.30;91.00
66128;DHT22;52925;52.436;-1.952;2023-09-08T05:49:56;21.30;91.00
66128;DHT22;52925;52.436;-1.952;2023-09-08T05:51:16;21.30;91.00
66128;DHT22;52925;52.436;-1.952;2023-09-08T05:52:37;21.30;91.00
66128;DHT22;52925;52.436;-1.952;2023-09-08T05:53:57;21.30;91.00
66128;DHT22;52925;52.436;-1.952;2023-09-08T05:55:18;21.30;91.00
66128;DHT22;52925;52.436;-1.952;2023-09-08T05:56:39;21.30;91.00
66128;DHT22;52925;52.436;-1.952;2023-09-08T05:57:59;21.30;91.00
66128;DHT22;52925;52.436;-1.952;2023-09-08T05:59:19;21.30;91.10
66128;DHT22;52925;52.436;-1.952;2023-09-08T06:00:41;21.20;91.10
66128;DHT22;52925;52.436;-1.952;2023-09-08T06:02:01;21.30;91.10
66128;DHT22;52925;52.436;-1.952;2023-09-08T06:03:23;21.30;91.10
66128;DHT22;52925;52.436;-1.952;2023-09-08T06:04:43;21.30;91.10
66128;DHT22;52925;52.436;-1.952;2023-09-08T06:06:04;21.30;91.10
66128;DHT22;52925;52.436;-1.952;2023-09-08T06:07:24;21.30;91.10
66128;DHT22;52925;52.436;-1.952;2023-09-08T06:08:45;21.20;91.10
66128;DHT22;52925;52.436;-1.952;2023-09-08T06:10:05;21.30;91.20
66128;DHT22;52925;52.436;-1.952;2023-09-08T06:11:26;21.30;91.10
66128;DHT22;52925;52.436;-1.952;2023-09-08T06:12:46;21.30;91.10
66128;DHT22;52925;52.436;-1.952;2023-09-08T06:14:10;21.30;91.10
66128;DHT22;52925;52.436;-1.952;2023-09-08T06:15:32;21.30;91.10
66128;DHT22;52925;52.436;-1.952;2023-09-08T06:16:55;21.20;91.10
66128;DHT22;52925;52.436;-1.952;2023-09-08T06:18:15;21.20;91.10
66128;DHT22;52925;52.436;-1.952;2023-09-08T06:19:36;21.20;91.20
66128;DHT22;52925;52.436;-1.952;2023-09-08T06:20:55;21.20;91.20
66128;DHT22;52925;52.436;-1.952;2023-09-08T06:22:16;21.30;91.20
66128;DHT22;52925;52.436;-1.952;2023-09-08T06:23:37;21.30;91.20
66128;DHT22;52925;52.436;-1.952;2023-09-08T06:24:58;21.20;91.20
66128;DHT22;52925;52.436;-1.952;2023-09-08T06:26:18;21.20;91.20
66128;DHT22;52925;52.436;-1.952;2023-09-08T06:27:39;21.20;91.20
66128;DHT22;52925;52.436;-1.952;2023-09-08T06:29:00;21.30;91.20
66128;DHT22;52925;52.436;-1.952;2023-09-08T06:30:21;21.30;91.20
66128;DHT22;52925;52.436;-1.952;2023-09-08T06:31:42;21.20;91.20
66128;DHT22;52925;52.436;-1.952;2023-09-08T06:33:05;21.30;91.20
66128;DHT22;52925;52.436;-1.952;2023-09-08T06:34:25;21.30;91.20
66128;DHT22;52925;52.436;-1.952;2023-09-08T06:35:46;21.30;91.20
66128;DHT22;52925;52.436;-1.952;2023-09-08T06:37:06;21.30;91.30
66128;DHT22;52925;52.436;-1.952;2023-09-08T06:38:28;21.20;91.20
66128;DHT22;52925;52.436;-1.952;2023-09-08T06:39:54;21.30;91.30
66128;DHT22;52925;52.436;-1.952;2023-09-08T06:41:15;21.30;91.30
66128;DHT22;52925;52.436;-1.952;2023-09-08T06:42:35;21.30;91.30
66128;DHT22;52925;52.436;-1.952;2023-09-08T06:44:20;21.30;91.30
66128;DHT22;52925;52.436;-1.952;2023-09-08T06:45:41;21.30;91.30
66128;DHT22;52925;52.436;-1.952;2023-09-08T06:47:01;21.30;91.30
66128;DHT22;52925;52.436;-1.952;2023-09-08T06:48:24;21.20;91.30
66128;DHT22;52925;52.436;-1.952;2023-09-08T06:49:44;21.20;91.30
66128;DHT22;52925;52.436;-1.952;2023-09-08T06:51:05;21.30;91.30
66128;DHT22;52925;52.436;-1.952;2023-09-08T06:52:25;21.30;91.30
66128;DHT22;52925;52.436;-1.952;2023-09-08T06:53:54;21.30;91.30
66128;DHT22;52925;52.436;-1.952;2023-09-08T06:55:15;21.30;91.30
66128;DHT22;52925;52.436;-1.952;2023-09-08T06:56:36;21.20;91.30
66128;DHT22;52925;52.436;-1.952;2023-09-08T06:57:59;21.30;91.30
66128;DHT22;52925;52.436;-1.952;2023-09-08T06:59:19;21.30;91.30
66128;DHT22;52925;52.436;-1.952;2023-09-08T07:00:40;21.20;91.40
66128;DHT22;52925;52.436;-1.952;2023-09-08T07:02:00;21.30;91.40
66128;DHT22;52925;52.436;-1.952;2023-09-08T07:03:20;21.30;91.40
66128;DHT22;52925;52.436;-1.952;2023-09-08T07:04:42;21.20;91.40
66128;DHT22;52925;52.436;-1.952;2023-09-08T07:06:03;21.30;91.40
66128;DHT22;52925;52.436;-1.952;2023-09-08T07:07:23;21.30;91.40
66128;DHT22;52925;52.436;-1.952;2023-09-08T07:08:44;21.30;91.40
66128;DHT22;52925;52.436;-1.952;2023-09-08T07:10:06;21.30;91.40
66128;DHT22;52925;52.436;-1.952;2023-09-08T07:11:28;21.30;91.50
66128;DHT22;52925;52.436;-1.952;2023-09-08T07:12:50;21.30;91.50
66128;DHT22;52925;52.436;-1.952;2023-09-08T07:14:10;21.30;91.40
66128;DHT22;52925;52.436;-1.952;2023-09-08T07:15:31;21.30;91.40
66128;DHT22;52925;52.436;-1.952;2023-09-08T07:16:51;21.30;91.40
66128;DHT22;52925;52.436;-1.952;2023-09-08T07:18:12;21.30;91.50
66128;DHT22;52925;52.436;-1.952;2023-09-08T07:19:32;21.30;91.50
66128;DHT22;52925;52.436;-1.952;2023-09-08T07:20:54;21.30;91.50
66128;DHT22;52925;52.436;-1.952;2023-09-08T07:22:14;21.30;91.40
66128;DHT22;52925;52.436;-1.952;2023-09-08T07:23:35;21.30;91.40
66128;DHT22;52925;52.436;-1.952;2023-09-08T07:24:57;21.30;91.40
66128;DHT22;52925;52.436;-1.952;2023-09-08T07:26:18;21.40;91.40
66128;DHT22;52925;52.436;-1.952;2023-09-08T07:27:38;21.30;91.40
66128;DHT22;52925;52.436;-1.952;2023-09-08T07:28:59;21.30;91.50
66128;DHT22;52925;52.436;-1.952;2023-09-08T07:30:19;21.30;91.40
66128;DHT22;52925;52.436;-1.952;2023-09-08T07:31:40;21.30;91.40
66128;DHT22;52925;52.436;-1.952;2023-09-08T07:33:00;21.30;91.40
66128;DHT22;52925;52.436;-1.952;2023-09-08T07:34:21;21.30;91.40
66128;DHT22;52925;52.436;-1.952;2023-09-08T07:35:41;21.30;91.50
66128;DHT22;52925;52.436;-1.952;2023-09-08T07:37:03;21.30;91.40
66128;DHT22;52925;52.436;-1.952;2023-09-08T07:38:23;21.30;91.40
66128;DHT22;52925;52.436;-1.952;2023-09-08T07:39:46;21.30;91.40
66128;DHT22;52925;52.436;-1.952;2023-09-08T07:41:05;21.40;91.50
66128;DHT22;52925;52.436;-1.952;2023-09-08T07:42:26;21.30;91.40
66128;DHT22;52925;52.436;-1.952;2023-09-08T07:43:47;21.40;91.40
66128;DHT22;52925;52.436;-1.952;2023-09-08T07:45:12;21.30;91.40
66128;DHT22;52925;52.436;-1.952;2023-09-08T07:46:31;21.40;91.40
66128;DHT22;52925;52.436;-1.952;2023-09-08T07:47:52;21.40;91.40
66128;DHT22;52925;52.436;-1.952;2023-09-08T07:49:12;21.40;91.40
66128;DHT22;52925;52.436;-1.952;2023-09-08T07:50:34;21.40;91.40
66128;DHT22;52925;52.436;-1.952;2023-09-08T07:51:54;21.40;91.40
66128;DHT22;52925;52.436;-1.952;2023-09-08T07:53:16;21.30;91.40
66128;DHT22;52925;52.436;-1.952;2023-09-08T07:54:36;21.40;91.50
66128;DHT22;52925;52.436;-1.952;2023-09-08T07:55:57;21.40;91.50
66128;DHT22;52925;52.436;-1.952;2023-09-08T07:57:17;21.40;91.40
66128;DHT22;52925;52.436;-1.952;2023-09-08T07:58:38;21.40;91.50
66128;DHT22;52925;52.436;-1.952;2023-09-08T07:59:59;21.40;91.40
66128;DHT22;52925;52.436;-1.952;2023-09-08T08:01:20;21.40;91.50
66128;DHT22;52925;52.436;-1.952;2023-09-08T08:02:45;21.40;91.50
66128;DHT22;52925;52.436;-1.952;2023-09-08T08:04:05;21.40;91.40
66128;DHT22;52925;52.436;-1.952;2023-09-08T08:05:26;21.40;91.40
66128;DHT22;52925;52.436;-1.952;2023-09-08T08:06:46;21.30;91.40
66128;DHT22;52925;52.436;-1.952;2023-09-08T08:08:09;21.40;91.40
66128;DHT22;52925;52.436;-1.952;2023-09-08T08:09:30;21.40;91.50
66128;DHT22;52925;52.436;-1.952;2023-09-08T08:10:51;21.40;91.40
66128;DHT22;52925;52.436;-1.952;2023-09-08T08:12:14;21.40;91.40
66128;DHT22;52925;52.436;-1.952;2023-09-08T08:13:35;21.40;91.40
66128;DHT22;52925;52.436;-1.952;2023-09-08T08:14:55;21.40;91.40
66128;DHT22;52925;52.436;-1.952;2023-09-08T08:16:15;21.50;91.40
66128;DHT22;52925;52.436;-1.952;2023-09-08T08:17:36;21.50;91.50
66128;DHT22;52925;52.436;-1.952;2023-09-08T08:18:57;21.50;91.50
66128;DHT22;52925;52.436;-1.952;2023-09-08T08:20:18;21.40;91.60
66128;DHT22;52925;52.436;-1.952;2023-09-08T08:21:38;21.50;91.60
66128;DHT22;52925;52.436;-1.952;2023-09-08T08:23:01;21.40;91.50
66128;DHT22;52925;52.436;-1.952;2023-09-08T08:24:21;21.50;91.50
66128;DHT22;52925;52.436;-1.952;2023-09-08T08:25:43;21.50;91.60